EKKA/KRP METAR and TAF weather

Enter ICAO airport designator
Station Type Date Time Source
EKKA METAR 2019/04/24 21:50 UTC NOAA

EKKA 242150Z AUTO 10009KT 9999 NCD 12/07 Q1007


Station Type Date Time Source
EKKA Decoded METAR 2019/04/24 21:50 UTC NOAA

Karup, Denmark (EKKA) 56-18N 009-07E 53M
Apr 24, 2019 - 05:50 PM EDT / 2019.04.24 2150 UTC
Wind: from the E (100 degrees) at 10 MPH (9 KT):0
Visibility: greater than 7 mile(s):0
Temperature: 53 F (12 C)
Dew Point: 44 F (7 C)
Relative Humidity: 71%
Pressure (altimeter): 29.74 in. Hg (1007 hPa)
ob: EKKA 242150Z AUTO 10009KT 9999 NCD 12/07 Q1007
cycle: 22

Station Type Date Time Source
EKKA TAF 2019/04/24 21:31 UTC NOAA

TAF EKKA 242029Z 2421/2521 11010KT 9999 FEW100
BECMG 2505/2507 18008KT 7000 RA BKN014
BECMG 2507/2509 9999 NSW SCT050
BECMG 2519/2521 10010KT

Example: see airport list